createdAt,value
2023-01-02T00:01:03.987Z,79.55
2023-01-02T00:03:31.467Z,80.05
2023-01-02T00:05:58.414Z,79.65
2023-01-02T00:08:25.161Z,79.69
2023-01-02T00:10:53.146Z,79.91
2023-01-02T00:13:20.457Z,79.96
2023-01-02T00:15:47.205Z,79.66
2023-01-02T00:18:16.551Z,80.21
2023-01-02T00:20:43.219Z,80.08
2023-01-02T00:23:09.939Z,80.06
2023-01-02T00:25:36.700Z,79.52
2023-01-02T00:28:03.788Z,80.13
2023-01-02T00:30:37.671Z,80.06
2023-01-02T00:33:05.890Z,80.10
2023-01-02T00:35:33.116Z,79.94
2023-01-02T00:38:00.212Z,80.65
2023-01-02T00:40:27.061Z,80.32
2023-01-02T00:42:56.007Z,80.21
2023-01-02T00:45:22.704Z,80.23
2023-01-02T00:47:49.431Z,79.78
2023-01-02T00:50:16.233Z,80.53
2023-01-02T00:52:42.933Z,80.19
2023-01-02T00:55:09.818Z,80.02
2023-01-02T00:57:37.266Z,80.21
2023-01-02T01:00:07.546Z,80.17
2023-01-02T01:02:34.379Z,80.20
2023-01-02T01:05:01.081Z,79.93
2023-01-02T01:07:29.461Z,79.66
2023-01-02T01:09:56.147Z,80.11
2023-01-02T01:12:22.953Z,80.50
2023-01-02T01:14:49.684Z,79.88
2023-01-02T01:17:16.369Z,80.42
2023-01-02T01:19:43.098Z,80.65
2023-01-02T01:22:09.783Z,80.78
2023-01-02T01:24:36.448Z,80.37
2023-01-02T01:27:03.132Z,80.63
2023-01-02T01:29:29.792Z,80.59
2023-01-02T01:31:56.518Z,80.84
2023-01-02T01:34:23.255Z,80.49
2023-01-02T01:36:50.003Z,80.35
2023-01-02T01:39:16.722Z,80.16
2023-01-02T01:41:43.486Z,80.66
2023-01-02T01:44:58.468Z,80.85
2023-01-02T01:47:40.652Z,80.39
2023-01-02T01:50:07.264Z,80.23
2023-01-02T01:52:36.305Z,80.43
2023-01-02T01:55:23.599Z,80.36
2023-01-02T01:57:59.312Z,80.80
2023-01-02T02:00:26.013Z,80.49
2023-01-02T02:02:58.942Z,80.61
2023-01-02T02:05:30.638Z,80.62
2023-01-02T02:08:21.739Z,80.82
2023-01-02T02:10:48.743Z,80.74
2023-01-02T02:13:15.538Z,81.06
2023-01-02T02:15:44.881Z,80.69
2023-01-02T02:18:29.400Z,81.17
2023-01-02T02:21:06.975Z,81.05
2023-01-02T02:24:06.491Z,80.87
2023-01-02T02:26:55.092Z,80.89
2023-01-02T02:29:49.635Z,80.93
2023-01-02T02:32:42.219Z,80.73
2023-01-02T02:35:11.498Z,81.29
2023-01-02T02:37:45.869Z,80.82
2023-01-02T02:40:25.395Z,81.30
2023-01-02T02:43:40.174Z,81.36
2023-01-02T02:46:26.694Z,81.04
2023-01-02T02:49:16.150Z,80.97
2023-01-02T02:51:49.509Z,80.91
2023-01-02T02:54:23.258Z,81.04
2023-01-02T02:56:53.270Z,81.19
2023-01-02T02:59:20.774Z,81.15
2023-01-02T03:01:47.562Z,81.05
2023-01-02T03:04:21.938Z,81.46
2023-01-02T03:07:36.513Z,81.40
2023-01-02T03:10:09.090Z,81.52
2023-01-02T03:12:53.753Z,81.20
2023-01-02T03:15:45.497Z,81.40
2023-01-02T03:18:16.939Z,81.49
2023-01-02T03:20:58.949Z,81.64
2023-01-02T03:23:31.199Z,81.51
2023-01-02T03:25:59.469Z,81.59
2023-01-02T03:28:27.285Z,81.62
2023-01-02T03:30:57.850Z,81.82
2023-01-02T03:33:27.834Z,81.48
2023-01-02T03:35:59.806Z,81.71
2023-01-02T03:38:34.384Z,81.74
2023-01-02T03:41:07.283Z,81.66
2023-01-02T03:43:37.142Z,81.65
2023-01-02T03:46:15.815Z,81.65
2023-01-02T03:49:00.685Z,81.66
2023-01-02T03:51:27.420Z,81.86
2023-01-02T03:53:54.627Z,81.75
2023-01-02T03:56:27.619Z,81.46
2023-01-02T03:59:09.147Z,82.02
2023-01-02T04:01:41.146Z,81.77
2023-01-02T04:04:36.394Z,81.99
2023-01-02T04:07:10.733Z,82.13
2023-01-02T04:09:39.866Z,82.36
2023-01-02T04:12:18.104Z,82.15
2023-01-02T04:14:52.753Z,81.96
2023-01-02T04:17:22.757Z,82.04
2023-01-02T04:20:13.277Z,81.84
2023-01-02T04:22:47.619Z,82.09
2023-01-02T04:25:17.350Z,82.18
2023-01-02T04:28:04.140Z,82.26
2023-01-02T04:30:35.318Z,82.10
2023-01-02T04:33:09.547Z,82.16
2023-01-02T04:35:36.379Z,81.83
2023-01-02T04:38:11.100Z,82.08
2023-01-02T04:40:38.482Z,82.15
2023-01-02T04:43:22.142Z,82.09
2023-01-02T04:45:49.621Z,82.17
2023-01-02T04:48:17.137Z,82.18
2023-01-02T04:50:45.234Z,82.47
2023-01-02T04:53:12.369Z,82.25
2023-01-02T04:55:39.421Z,82.56
2023-01-02T04:58:06.465Z,82.59
2023-01-02T05:00:35.821Z,82.71
2023-01-02T05:03:03.611Z,82.43
2023-01-02T05:05:30.913Z,82.55
2023-01-02T05:08:00.637Z,82.31
2023-01-02T05:10:27.305Z,82.73
2023-01-02T05:12:54.108Z,82.74
2023-01-02T05:15:20.773Z,82.46
2023-01-02T05:17:47.421Z,82.42
2023-01-02T05:20:14.192Z,82.50
2023-01-02T05:23:01.499Z,82.33
2023-01-02T05:25:31.752Z,82.54
2023-01-02T05:27:58.491Z,82.78
2023-01-02T05:30:25.569Z,82.57
2023-01-02T05:32:52.383Z,82.97
2023-01-02T05:35:19.127Z,82.74
2023-01-02T05:37:45.876Z,83.05
2023-01-02T05:40:12.923Z,82.88
2023-01-02T05:42:39.690Z,83.15
2023-01-02T05:45:07.037Z,83.17
2023-01-02T05:47:33.984Z,82.91
2023-01-02T05:50:00.768Z,83.25
2023-01-02T05:52:27.472Z,83.44
2023-01-02T05:54:54.207Z,83.42
2023-01-02T05:57:20.936Z,83.14
2023-01-02T05:59:47.563Z,83.37
2023-01-02T06:02:14.359Z,83.31
2023-01-02T06:04:41.089Z,83.50
2023-01-02T06:07:07.964Z,83.34
2023-01-02T06:09:34.633Z,83.57
2023-01-02T06:12:01.447Z,83.64
2023-01-02T06:14:28.089Z,83.52
2023-01-02T06:16:54.844Z,83.15
2023-01-02T06:19:22.030Z,83.50
2023-01-02T06:21:48.673Z,83.40
2023-01-02T06:24:15.420Z,83.67
2023-01-02T06:26:42.084Z,83.54
2023-01-02T06:29:09.302Z,83.71
2023-01-02T06:31:39.708Z,83.65
2023-01-02T06:34:06.619Z,83.77
2023-01-02T06:36:34.412Z,83.57
2023-01-02T06:39:01.579Z,83.64
2023-01-02T06:41:28.443Z,83.96
2023-01-02T06:43:55.422Z,83.76
2023-01-02T06:46:23.274Z,83.80
2023-01-02T06:48:50.413Z,84.12
2023-01-02T06:51:22.375Z,84.29
2023-01-02T06:53:49.614Z,84.21
2023-01-02T06:56:18.366Z,83.96
2023-01-02T06:58:45.032Z,83.94
2023-01-02T07:01:19.673Z,83.96
2023-01-02T07:03:46.871Z,83.94
2023-01-02T07:06:16.966Z,83.96
2023-01-02T07:08:44.090Z,84.11
2023-01-02T07:11:15.190Z,84.20
2023-01-02T07:13:43.500Z,84.17
2023-01-02T07:16:13.732Z,84.23
2023-01-02T07:18:41.767Z,84.36
2023-01-02T07:21:10.334Z,84.45
2023-01-02T07:23:37.941Z,84.26
2023-01-02T07:26:06.689Z,84.34
2023-01-02T07:28:34.579Z,84.55
2023-01-02T07:31:04.100Z,84.46
2023-01-02T07:33:32.187Z,84.35
2023-01-02T07:36:08.423Z,84.67
2023-01-02T07:38:35.368Z,84.67
2023-01-02T07:41:02.060Z,84.64
2023-01-02T07:43:28.750Z,84.89
2023-01-02T07:45:55.545Z,84.97
2023-01-02T07:48:22.254Z,85.02
2023-01-02T07:50:49.030Z,84.76
2023-01-02T07:53:15.867Z,84.72
2023-01-02T07:55:42.532Z,84.77
2023-01-02T07:58:09.228Z,84.85
2023-01-02T08:00:35.895Z,85.08
2023-01-02T08:03:02.551Z,84.84
2023-01-02T08:05:29.277Z,84.89
2023-01-02T08:07:55.965Z,85.09
2023-01-02T08:10:23.177Z,84.84
2023-01-02T08:12:49.898Z,85.02
2023-01-02T08:15:16.701Z,85.07
2023-01-02T08:17:43.435Z,85.32
2023-01-02T08:20:11.367Z,85.22
2023-01-02T08:22:38.281Z,85.06
2023-01-02T08:25:05.501Z,85.13
2023-01-02T08:27:32.240Z,85.27
2023-01-02T08:29:59.049Z,85.29
2023-01-02T08:32:25.722Z,85.33
2023-01-02T08:34:52.388Z,85.40
2023-01-02T08:37:19.839Z,85.26
2023-01-02T08:39:46.589Z,85.43
2023-01-02T08:42:13.282Z,85.35
2023-01-02T08:44:40.395Z,85.75
2023-01-02T08:47:07.106Z,85.59
2023-01-02T08:49:33.797Z,85.58
2023-01-02T08:52:00.490Z,85.50
2023-01-02T08:54:27.235Z,85.53
2023-01-02T08:56:53.979Z,85.70
2023-01-02T08:59:23.840Z,85.56
2023-01-02T09:01:50.749Z,85.54
2023-01-02T09:04:18.160Z,85.29
2023-01-02T09:06:45.536Z,85.63
2023-01-02T09:09:14.577Z,85.72
2023-01-02T09:11:50.923Z,85.76
2023-01-02T09:14:19.597Z,85.56
2023-01-02T09:16:46.345Z,85.95
2023-01-02T09:19:13.092Z,85.95
2023-01-02T09:21:39.944Z,85.71
2023-01-02T09:24:07.576Z,86.00
2023-01-02T09:26:34.800Z,85.92
2023-01-02T09:29:01.463Z,85.84
2023-01-02T09:31:28.305Z,86.00
2023-01-02T09:33:56.446Z,85.94
2023-01-02T09:36:23.383Z,86.03
2023-01-02T09:38:58.606Z,85.95
2023-01-02T09:41:46.344Z,86.11
2023-01-02T09:44:27.108Z,86.07
2023-01-02T09:47:00.781Z,85.84
2023-01-02T09:49:52.485Z,85.88
2023-01-02T09:52:23.888Z,85.90
2023-01-02T09:54:50.797Z,85.80
2023-01-02T09:57:29.887Z,86.33
2023-01-02T10:00:06.490Z,86.34
2023-01-02T10:02:55.606Z,86.02
2023-01-02T10:05:41.020Z,85.94
2023-01-02T10:08:43.627Z,86.24
2023-01-02T10:11:26.773Z,86.37
2023-01-02T10:16:51.238Z,86.18
2023-01-02T10:19:40.620Z,86.39
2023-01-02T10:22:13.426Z,86.07
2023-01-02T10:25:00.179Z,86.32
2023-01-02T10:27:32.880Z,86.11
2023-01-02T10:30:25.900Z,86.30
2023-01-02T10:33:02.740Z,86.02
2023-01-02T10:35:43.549Z,85.93
2023-01-02T10:38:18.656Z,86.25
2023-01-02T10:40:48.679Z,86.35
2023-01-02T10:43:15.745Z,86.59
2023-01-02T10:45:43.185Z,86.43
2023-01-02T10:48:13.600Z,86.39
2023-01-02T10:50:45.090Z,86.20
2023-01-02T10:53:41.121Z,86.34
2023-01-02T10:56:18.404Z,86.38
2023-01-02T10:58:47.539Z,86.39
2023-01-02T11:01:18.681Z,86.35
2023-01-02T11:04:06.535Z,86.59
2023-01-02T11:06:39.382Z,86.08
2023-01-02T11:09:22.679Z,86.64
2023-01-02T11:11:52.335Z,86.60
2023-01-02T11:14:23.871Z,86.31
2023-01-02T11:16:51.163Z,86.92
2023-01-02T11:19:29.441Z,86.66
2023-01-02T11:21:57.293Z,86.72
2023-01-02T11:24:28.656Z,86.37
2023-01-02T11:26:56.367Z,86.82
2023-01-02T11:29:34.664Z,86.24
2023-01-02T11:32:03.770Z,86.64
2023-01-02T11:34:40.237Z,86.70
2023-01-02T11:37:17.477Z,86.77
2023-01-02T11:40:01.252Z,86.48
2023-01-02T11:43:02.265Z,86.66
2023-01-02T11:45:30.811Z,86.70
2023-01-02T11:48:01.954Z,86.96
2023-01-02T11:50:35.372Z,86.27
2023-01-02T11:53:04.186Z,87.02
2023-01-02T11:56:02.485Z,86.99
2023-01-02T11:58:39.399Z,86.93
2023-01-02T12:01:40.567Z,86.90
2023-01-02T12:04:07.599Z,86.88
2023-01-02T12:06:52.431Z,86.51
2023-01-02T12:10:00.572Z,86.55
2023-01-02T12:12:43.095Z,86.58
2023-01-02T12:15:45.069Z,86.83
2023-01-02T12:18:37.441Z,86.53
2023-01-02T12:21:12.948Z,87.03
2023-01-02T12:24:21.370Z,86.93
2023-01-02T12:27:08.243Z,86.97
2023-01-02T12:30:07.316Z,86.82
2023-01-02T12:32:52.454Z,86.90
2023-01-02T12:35:37.812Z,87.09
2023-01-02T12:38:07.901Z,86.40
2023-01-02T12:41:04.372Z,86.79
2023-01-02T12:43:37.911Z,87.34
2023-01-02T12:46:16.693Z,86.81
2023-01-02T12:49:16.530Z,86.85
2023-01-02T12:51:58.036Z,87.06
2023-01-02T12:54:45.804Z,86.74
2023-01-02T12:57:22.654Z,86.72
2023-01-02T13:00:20.344Z,86.52
2023-01-02T13:03:05.860Z,87.24
2023-01-02T13:05:39.629Z,86.92
2023-01-02T13:08:30.033Z,87.20
2023-01-02T13:11:01.768Z,86.88
2023-01-02T13:13:33.626Z,87.31
2023-01-02T13:16:20.725Z,87.21
2023-01-02T13:19:01.304Z,86.82
2023-01-02T13:22:08.535Z,87.26
2023-01-02T13:24:35.710Z,87.23
2023-01-02T13:27:03.964Z,87.06
2023-01-02T13:29:45.017Z,86.88
2023-01-02T13:32:13.981Z,86.88
2023-01-02T13:34:52.770Z,86.85
2023-01-02T13:37:23.685Z,86.90
2023-01-02T13:39:56.678Z,87.42
2023-01-02T13:42:43.799Z,87.12
2023-01-02T13:45:23.280Z,87.49
2023-01-02T13:48:03.412Z,86.98
2023-01-02T13:50:33.873Z,87.11
2023-01-02T13:53:26.623Z,87.43
2023-01-02T13:56:07.673Z,87.24
2023-01-02T13:58:47.830Z,87.65
2023-01-02T14:01:23.753Z,87.39
2023-01-02T14:04:13.364Z,87.61
2023-01-02T14:06:42.351Z,87.04
2023-01-02T14:09:12.005Z,87.24
2023-01-02T14:11:56.946Z,87.67
2023-01-02T14:14:48.465Z,87.68
2023-01-02T14:17:48.874Z,87.13
2023-01-02T14:20:18.565Z,87.75
2023-01-02T14:22:54.072Z,87.25
2023-01-02T14:25:21.901Z,87.52
2023-01-02T14:27:58.341Z,87.83
2023-01-02T14:30:36.009Z,87.44
2023-01-02T14:33:04.598Z,87.43
2023-01-02T14:35:35.928Z,87.85
2023-01-02T14:38:14.822Z,87.26
2023-01-02T14:40:43.016Z,87.42
2023-01-02T14:43:35.950Z,87.93
2023-01-02T14:46:21.299Z,87.21
2023-01-02T14:49:25.228Z,87.61
2023-01-02T14:52:12.868Z,87.77
2023-01-02T14:54:45.376Z,88.04
2023-01-02T14:57:34.460Z,87.87
2023-01-02T15:00:11.509Z,88.06
2023-01-02T15:02:44.608Z,87.80
2023-01-02T15:05:26.983Z,87.84
2023-01-02T15:07:58.280Z,87.99
2023-01-02T15:10:25.536Z,87.58
2023-01-02T15:13:09.041Z,87.63
2023-01-02T15:15:41.097Z,87.88
2023-01-02T15:18:32.574Z,87.94
2023-01-02T15:21:12.299Z,87.38
2023-01-02T15:23:44.053Z,87.71
2023-01-02T15:26:31.376Z,88.06
2023-01-02T15:29:05.431Z,87.68
2023-01-02T15:31:32.669Z,88.02
2023-01-02T15:34:00.759Z,87.74
2023-01-02T15:36:36.718Z,88.08
2023-01-02T15:39:18.336Z,87.83
2023-01-02T15:41:50.669Z,87.57
2023-01-02T15:44:48.684Z,88.01
2023-01-02T15:47:17.572Z,87.75
2023-01-02T15:49:48.202Z,88.10
2023-01-02T15:52:24.117Z,87.94
2023-01-02T15:54:52.580Z,87.83
2023-01-02T15:57:25.122Z,87.67
2023-01-02T15:59:52.083Z,87.98
2023-01-02T16:02:46.468Z,88.06
2023-01-02T16:05:16.097Z,87.63
2023-01-02T16:07:48.640Z,87.85
2023-01-02T16:10:21.608Z,88.13
2023-01-02T16:12:55.539Z,87.83
2023-01-02T16:15:28.473Z,87.73
2023-01-02T16:17:57.168Z,88.07
2023-01-02T16:20:26.732Z,87.83
2023-01-02T16:23:07.370Z,88.20
2023-01-02T16:25:43.339Z,88.00
2023-01-02T16:28:35.631Z,88.20
2023-01-02T16:31:20.169Z,88.15
2023-01-02T16:33:47.565Z,88.13
2023-01-02T16:36:14.247Z,87.59
2023-01-02T16:38:49.687Z,87.76
2023-01-02T16:41:36.629Z,87.63
2023-01-02T16:44:05.072Z,88.11
2023-01-02T16:46:31.784Z,88.07
2023-01-02T16:49:05.005Z,88.10
2023-01-02T16:51:32.486Z,87.88
2023-01-02T16:53:59.540Z,87.86
2023-01-02T16:56:26.359Z,87.82
2023-01-02T16:58:53.131Z,88.11
2023-01-02T17:01:22.763Z,87.95
2023-01-02T17:03:49.639Z,88.07
2023-01-02T17:06:18.832Z,87.93
2023-01-02T17:08:45.667Z,87.98
2023-01-02T17:11:16.000Z,88.31
2023-01-02T17:13:42.693Z,88.29
2023-01-02T17:16:09.527Z,88.38
2023-01-02T17:18:36.353Z,87.94
2023-01-02T17:21:02.997Z,88.50
2023-01-02T17:23:29.662Z,88.43
2023-01-02T17:25:56.396Z,87.76
2023-01-02T17:28:23.162Z,87.73
2023-01-02T17:30:50.097Z,87.78
2023-01-02T17:33:17.842Z,88.37
2023-01-02T17:35:47.782Z,87.92
2023-01-02T17:38:15.157Z,87.84
2023-01-02T17:40:41.860Z,87.88
2023-01-02T17:43:08.671Z,88.31
2023-01-02T17:45:35.409Z,88.26
2023-01-02T17:48:10.072Z,88.27
2023-01-02T17:50:38.066Z,87.92
2023-01-02T17:53:04.820Z,88.49
2023-01-02T17:55:31.583Z,88.13
2023-01-02T17:58:00.475Z,88.13
2023-01-02T18:00:27.791Z,88.16
2023-01-02T18:02:54.739Z,88.21
2023-01-02T18:05:22.698Z,87.99
2023-01-02T18:07:49.521Z,88.05
2023-01-02T18:10:20.142Z,88.37
2023-01-02T18:12:49.252Z,88.27
2023-01-02T18:15:20.196Z,87.96
2023-01-02T18:17:47.491Z,88.01
2023-01-02T18:20:17.560Z,87.92
2023-01-02T18:22:49.537Z,88.26
2023-01-02T18:25:25.033Z,87.94
2023-01-02T18:27:58.123Z,88.41
2023-01-02T18:30:26.323Z,88.07
2023-01-02T18:33:14.664Z,88.32
2023-01-02T18:35:58.432Z,88.18
2023-01-02T18:38:35.842Z,88.38
2023-01-02T18:41:16.203Z,88.22
2023-01-02T18:43:44.466Z,88.09
2023-01-02T18:46:15.450Z,88.32
2023-01-02T18:48:42.653Z,88.29
2023-01-02T18:51:24.137Z,88.17
2023-01-02T18:53:57.081Z,88.01
2023-01-02T18:56:27.147Z,88.04
2023-01-02T18:59:16.822Z,88.36
2023-01-02T19:01:50.571Z,88.13
2023-01-02T19:04:30.441Z,88.01
2023-01-02T19:07:01.425Z,88.21
2023-01-02T19:09:34.106Z,88.06
2023-01-02T19:12:41.135Z,88.39
2023-01-02T19:15:30.987Z,88.48
2023-01-02T19:18:15.873Z,88.52
2023-01-02T19:20:44.347Z,87.98
2023-01-02T19:23:22.945Z,88.24
2023-01-02T19:25:50.227Z,87.89
2023-01-02T19:28:29.979Z,88.00
2023-01-02T19:30:56.799Z,88.28
2023-01-02T19:33:29.485Z,87.93
2023-01-02T19:36:00.022Z,88.17
2023-01-02T19:38:29.439Z,88.09
2023-01-02T19:40:56.497Z,88.36
2023-01-02T19:43:23.300Z,88.06
2023-01-02T19:45:50.041Z,87.91
2023-01-02T19:48:18.455Z,88.06
2023-01-02T19:50:45.506Z,88.65
2023-01-02T19:53:12.291Z,88.33
2023-01-02T19:55:38.995Z,88.22
2023-01-02T19:58:05.760Z,88.11
2023-01-02T20:00:33.017Z,88.12
2023-01-02T20:02:59.988Z,88.39
2023-01-02T20:05:28.741Z,87.98
2023-01-02T20:07:57.853Z,88.13
2023-01-02T20:10:25.524Z,88.04
2023-01-02T20:12:52.197Z,88.18
2023-01-02T20:15:24.695Z,87.77
2023-01-02T20:17:52.884Z,87.97
2023-01-02T20:20:22.673Z,88.03
2023-01-02T20:22:51.703Z,88.46
2023-01-02T20:25:24.431Z,87.97
2023-01-02T20:27:52.882Z,87.96
2023-01-02T20:30:24.290Z,88.01
2023-01-02T20:32:52.503Z,88.08
2023-01-02T20:35:19.282Z,88.36
2023-01-02T20:37:46.005Z,88.17
2023-01-02T20:40:12.799Z,87.91
2023-01-02T20:42:39.550Z,87.91
2023-01-02T20:45:07.240Z,88.16
2023-01-02T20:47:36.402Z,88.01
2023-01-02T20:50:03.686Z,88.11
2023-01-02T20:52:30.350Z,88.34
2023-01-02T20:54:57.132Z,88.48
2023-01-02T20:57:24.149Z,88.38
2023-01-02T20:59:50.987Z,88.21
2023-01-02T21:02:17.905Z,88.24
2023-01-02T21:04:44.623Z,88.31
2023-01-02T21:07:11.393Z,88.41
2023-01-02T21:09:38.090Z,87.96
2023-01-02T21:12:24.755Z,88.16
2023-01-02T21:14:51.424Z,87.94
2023-01-02T21:17:18.090Z,88.13
2023-01-02T21:19:44.770Z,88.08
2023-01-02T21:22:11.412Z,87.96
2023-01-02T21:24:38.067Z,88.13
2023-01-02T21:27:10.943Z,88.16
2023-01-02T21:29:39.710Z,88.03
2023-01-02T21:32:06.455Z,88.11
2023-01-02T21:34:33.131Z,88.18
2023-01-02T21:37:00.127Z,87.95
2023-01-02T21:39:26.827Z,88.06
2023-01-02T21:42:12.234Z,87.77
2023-01-02T21:44:38.945Z,87.91
2023-01-02T21:47:05.693Z,88.03
2023-01-02T21:49:32.654Z,87.72
2023-01-02T21:52:00.244Z,87.74
2023-01-02T21:54:27.541Z,87.81
2023-01-02T21:56:54.263Z,87.66
2023-01-02T21:59:25.247Z,87.71
2023-01-02T22:01:56.567Z,87.82
2023-01-02T22:04:23.505Z,88.12
2023-01-02T22:07:30.151Z,87.87
2023-01-02T22:09:37.089Z,87.80
2023-01-02T22:12:07.129Z,87.98
2023-01-02T22:14:36.522Z,87.14
2023-01-02T22:17:06.645Z,87.29
2023-01-02T22:19:33.819Z,87.66
2023-01-02T22:22:02.349Z,87.38
2023-01-02T22:24:29.656Z,87.44
2023-01-02T22:26:58.339Z,87.80
2023-01-02T22:29:51.367Z,87.28
2023-01-02T22:32:14.948Z,87.11
2023-01-02T22:34:44.269Z,87.50
2023-01-02T22:37:14.564Z,87.05
2023-01-02T22:39:45.317Z,87.11
2023-01-02T22:42:59.570Z,87.02
2023-01-02T22:45:27.667Z,87.28
2023-01-02T22:48:00.912Z,87.48
2023-01-02T22:50:31.122Z,87.16
2023-01-02T22:52:58.081Z,87.27
2023-01-02T22:55:24.814Z,87.43
2023-01-02T22:57:52.146Z,86.91
2023-01-02T23:00:22.518Z,87.19
2023-01-02T23:02:50.129Z,87.40
2023-01-02T23:05:19.014Z,87.15
2023-01-02T23:07:47.018Z,87.28
2023-01-02T23:10:14.180Z,87.03
2023-01-02T23:12:40.912Z,87.32
2023-01-02T23:15:09.246Z,86.97
2023-01-02T23:17:54.706Z,87.13
2023-01-02T23:20:21.605Z,87.22
2023-01-02T23:22:48.316Z,87.34
2023-01-02T23:25:15.588Z,87.31
2023-01-02T23:27:42.777Z,87.18
2023-01-02T23:30:10.159Z,87.13
2023-01-02T23:32:36.924Z,87.13
2023-01-02T23:35:04.405Z,87.01
2023-01-02T23:37:31.152Z,87.50
2023-01-02T23:39:57.880Z,87.07
2023-01-02T23:42:24.527Z,87.14
2023-01-02T23:44:51.210Z,87.17
2023-01-02T23:47:19.444Z,87.43
2023-01-02T23:49:46.506Z,87.11
2023-01-02T23:52:13.435Z,87.16
2023-01-02T23:54:40.527Z,86.98
2023-01-02T23:57:10.236Z,87.34
2023-01-02T23:59:37.421Z,87.11
